sensor_id;sensor_type;location;lat;lon;timestamp;P1;durP1;ratioP1;P2;durP2;ratioP2
63664;SDS011;49820;33.966;73.390;2022-09-01T00:00:47;13.45;;;9.52;;
63664;SDS011;49820;33.966;73.390;2022-09-01T00:03:18;11.65;;;9.55;;
63664;SDS011;49820;33.966;73.390;2022-09-01T00:05:53;13.60;;;8.93;;
63664;SDS011;49820;33.966;73.390;2022-09-01T00:08:24;12.15;;;9.25;;
63664;SDS011;49820;33.966;73.390;2022-09-01T00:10:55;13.82;;;8.63;;
63664;SDS011;49820;33.966;73.390;2022-09-01T00:13:25;14.07;;;9.48;;
63664;SDS011;49820;33.966;73.390;2022-09-01T00:15:55;12.98;;;9.50;;
63664;SDS011;49820;33.966;73.390;2022-09-01T00:18:25;13.73;;;9.02;;
63664;SDS011;49820;33.966;73.390;2022-09-01T00:20:54;14.38;;;9.88;;
63664;SDS011;49820;33.966;73.390;2022-09-01T00:23:27;18.13;;;10.63;;
63664;SDS011;49820;33.966;73.390;2022-09-01T00:25:57;14.68;;;10.13;;
63664;SDS011;49820;33.966;73.390;2022-09-01T00:28:27;15.95;;;10.00;;
63664;SDS011;49820;33.966;73.390;2022-09-01T00:30:57;17.13;;;10.65;;
63664;SDS011;49820;33.966;73.390;2022-09-01T00:33:27;14.90;;;10.80;;
63664;SDS011;49820;33.966;73.390;2022-09-01T00:35:57;14.00;;;10.27;;
63664;SDS011;49820;33.966;73.390;2022-09-01T00:38:27;15.90;;;10.50;;
63664;SDS011;49820;33.966;73.390;2022-09-01T00:40:57;17.88;;;10.00;;
63664;SDS011;49820;33.966;73.390;2022-09-01T00:46:16;14.15;;;9.30;;
63664;SDS011;49820;33.966;73.390;2022-09-01T00:49:03;14.80;;;10.35;;
63664;SDS011;49820;33.966;73.390;2022-09-01T00:51:39;13.18;;;8.70;;
63664;SDS011;49820;33.966;73.390;2022-09-01T00:54:14;13.90;;;8.95;;
63664;SDS011;49820;33.966;73.390;2022-09-01T00:56:50;11.50;;;7.78;;
63664;SDS011;49820;33.966;73.390;2022-09-01T00:59:24;13.87;;;7.50;;
63664;SDS011;49820;33.966;73.390;2022-09-01T01:01:56;9.45;;;7.22;;
63664;SDS011;49820;33.966;73.390;2022-09-01T01:04:27;10.38;;;7.22;;
63664;SDS011;49820;33.966;73.390;2022-09-01T01:06:57;10.60;;;7.20;;
63664;SDS011;49820;33.966;73.390;2022-09-01T01:09:35;14.63;;;9.70;;
63664;SDS011;49820;33.966;73.390;2022-09-01T01:12:10;17.02;;;9.60;;
63664;SDS011;49820;33.966;73.390;2022-09-01T01:14:41;20.07;;;9.57;;
63664;SDS011;49820;33.966;73.390;2022-09-01T01:17:19;14.15;;;8.07;;
63664;SDS011;49820;33.966;73.390;2022-09-01T01:19:51;9.20;;;7.30;;
63664;SDS011;49820;33.966;73.390;2022-09-01T01:25:53;9.95;;;5.93;;
63664;SDS011;49820;33.966;73.390;2022-09-01T01:28:33;9.00;;;5.78;;
63664;SDS011;49820;33.966;73.390;2022-09-01T01:31:10;9.10;;;6.50;;
63664;SDS011;49820;33.966;73.390;2022-09-01T01:33:47;10.43;;;5.93;;
63664;SDS011;49820;33.966;73.390;2022-09-01T01:36:27;8.68;;;5.25;;
63664;SDS011;49820;33.966;73.390;2022-09-01T01:39:10;11.77;;;7.10;;
63664;SDS011;49820;33.966;73.390;2022-09-01T01:41:46;28.15;;;25.15;;
63664;SDS011;49820;33.966;73.390;2022-09-01T01:44:21;46.63;;;41.95;;
63664;SDS011;49820;33.966;73.390;2022-09-01T01:47:00;14.80;;;10.98;;
63664;SDS011;49820;33.966;73.390;2022-09-01T01:49:33;17.47;;;14.03;;
63664;SDS011;49820;33.966;73.390;2022-09-01T01:52:05;18.42;;;12.63;;
63664;SDS011;49820;33.966;73.390;2022-09-01T01:54:34;11.98;;;7.50;;
63664;SDS011;49820;33.966;73.390;2022-09-01T01:57:05;10.88;;;7.00;;
63664;SDS011;49820;33.966;73.390;2022-09-01T01:59:35;12.52;;;5.90;;
63664;SDS011;49820;33.966;73.390;2022-09-01T02:02:08;13.15;;;4.88;;
63664;SDS011;49820;33.966;73.390;2022-09-01T02:04:40;11.30;;;5.50;;
63664;SDS011;49820;33.966;73.390;2022-09-01T02:07:12;12.73;;;5.43;;
63664;SDS011;49820;33.966;73.390;2022-09-01T02:09:42;8.52;;;5.10;;
63664;SDS011;49820;33.966;73.390;2022-09-01T02:12:15;11.88;;;5.90;;
63664;SDS011;49820;33.966;73.390;2022-09-01T02:14:49;9.35;;;5.57;;
63664;SDS011;49820;33.966;73.390;2022-09-01T02:17:21;12.30;;;6.05;;
63664;SDS011;49820;33.966;73.390;2022-09-01T02:19:53;9.40;;;5.30;;
63664;SDS011;49820;33.966;73.390;2022-09-01T02:22:25;13.50;;;5.35;;
63664;SDS011;49820;33.966;73.390;2022-09-01T02:24:56;9.93;;;5.40;;
63664;SDS011;49820;33.966;73.390;2022-09-01T02:27:26;10.43;;;5.50;;
63664;SDS011;49820;33.966;73.390;2022-09-01T02:29:57;10.65;;;5.20;;
63664;SDS011;49820;33.966;73.390;2022-09-01T02:32:29;13.45;;;7.00;;
63664;SDS011;49820;33.966;73.390;2022-09-01T02:34:59;11.32;;;7.13;;
63664;SDS011;49820;33.966;73.390;2022-09-01T02:37:29;11.23;;;6.05;;
63664;SDS011;49820;33.966;73.390;2022-09-01T02:39:58;13.33;;;7.40;;
63664;SDS011;49820;33.966;73.390;2022-09-01T02:42:30;12.70;;;6.40;;
63664;SDS011;49820;33.966;73.390;2022-09-01T02:44:59;12.05;;;6.88;;
63664;SDS011;49820;33.966;73.390;2022-09-01T02:47:30;10.43;;;5.35;;
63664;SDS011;49820;33.966;73.390;2022-09-01T02:49:59;15.75;;;7.60;;
63664;SDS011;49820;33.966;73.390;2022-09-01T02:52:31;17.02;;;14.20;;
63664;SDS011;49820;33.966;73.390;2022-09-01T02:55:07;44.58;;;36.38;;
63664;SDS011;49820;33.966;73.390;2022-09-01T02:57:37;13.77;;;8.88;;
63664;SDS011;49820;33.966;73.390;2022-09-01T03:00:07;13.85;;;6.07;;
63664;SDS011;49820;33.966;73.390;2022-09-01T03:02:50;15.53;;;8.27;;
63664;SDS011;49820;33.966;73.390;2022-09-01T03:05:22;11.63;;;6.57;;
63664;SDS011;49820;33.966;73.390;2022-09-01T03:07:56;9.18;;;5.18;;
63664;SDS011;49820;33.966;73.390;2022-09-01T03:10:33;11.35;;;5.40;;
63664;SDS011;49820;33.966;73.390;2022-09-01T03:13:08;15.57;;;5.53;;
63664;SDS011;49820;33.966;73.390;2022-09-01T03:15:44;11.15;;;5.45;;
63664;SDS011;49820;33.966;73.390;2022-09-01T03:18:15;11.70;;;5.17;;
63664;SDS011;49820;33.966;73.390;2022-09-01T03:20:46;14.15;;;6.10;;
63664;SDS011;49820;33.966;73.390;2022-09-01T03:23:18;12.02;;;5.40;;
63664;SDS011;49820;33.966;73.390;2022-09-01T03:25:48;11.63;;;5.03;;
63664;SDS011;49820;33.966;73.390;2022-09-01T03:28:19;13.23;;;5.35;;
63664;SDS011;49820;33.966;73.390;2022-09-01T03:30:50;9.00;;;4.80;;
63664;SDS011;49820;33.966;73.390;2022-09-01T03:33:24;11.48;;;6.07;;
63664;SDS011;49820;33.966;73.390;2022-09-01T03:35:56;11.43;;;5.75;;
63664;SDS011;49820;33.966;73.390;2022-09-01T03:38:27;10.30;;;5.43;;
63664;SDS011;49820;33.966;73.390;2022-09-01T03:41:01;9.15;;;5.20;;
63664;SDS011;49820;33.966;73.390;2022-09-01T03:43:33;13.13;;;5.50;;
63664;SDS011;49820;33.966;73.390;2022-09-01T03:46:12;9.68;;;5.07;;
63664;SDS011;49820;33.966;73.390;2022-09-01T03:49:04;12.23;;;5.43;;
63664;SDS011;49820;33.966;73.390;2022-09-01T03:51:36;11.30;;;5.47;;
63664;SDS011;49820;33.966;73.390;2022-09-01T03:54:07;10.80;;;5.20;;
63664;SDS011;49820;33.966;73.390;2022-09-01T03:56:38;12.07;;;5.47;;
63664;SDS011;49820;33.966;73.390;2022-09-01T03:59:15;10.23;;;5.35;;
63664;SDS011;49820;33.966;73.390;2022-09-01T04:01:46;8.27;;;5.07;;
63664;SDS011;49820;33.966;73.390;2022-09-01T04:04:16;11.13;;;5.30;;
63664;SDS011;49820;33.966;73.390;2022-09-01T04:06:46;11.70;;;5.67;;
63664;SDS011;49820;33.966;73.390;2022-09-01T04:09:16;10.37;;;5.40;;
63664;SDS011;49820;33.966;73.390;2022-09-01T04:11:46;10.50;;;5.60;;
63664;SDS011;49820;33.966;73.390;2022-09-01T04:14:20;10.95;;;6.10;;
63664;SDS011;49820;33.966;73.390;2022-09-01T04:16:51;12.93;;;5.32;;
63664;SDS011;49820;33.966;73.390;2022-09-01T04:19:39;12.45;;;6.82;;
63664;SDS011;49820;33.966;73.390;2022-09-01T04:22:11;10.98;;;6.00;;
63664;SDS011;49820;33.966;73.390;2022-09-01T04:24:42;10.53;;;5.17;;
63664;SDS011;49820;33.966;73.390;2022-09-01T04:27:15;10.55;;;5.60;;
63664;SDS011;49820;33.966;73.390;2022-09-01T04:29:45;10.20;;;5.65;;
63664;SDS011;49820;33.966;73.390;2022-09-01T04:32:16;12.68;;;6.35;;
63664;SDS011;49820;33.966;73.390;2022-09-01T04:34:52;8.73;;;5.50;;
63664;SDS011;49820;33.966;73.390;2022-09-01T04:37:23;13.02;;;5.55;;
63664;SDS011;49820;33.966;73.390;2022-09-01T04:39:56;10.80;;;5.40;;
63664;SDS011;49820;33.966;73.390;2022-09-01T04:42:28;10.70;;;5.70;;
63664;SDS011;49820;33.966;73.390;2022-09-01T04:45:02;11.57;;;6.00;;
63664;SDS011;49820;33.966;73.390;2022-09-01T04:47:41;10.75;;;5.30;;
63664;SDS011;49820;33.966;73.390;2022-09-01T04:50:15;11.00;;;5.97;;
63664;SDS011;49820;33.966;73.390;2022-09-01T04:53:11;11.82;;;5.78;;
63664;SDS011;49820;33.966;73.390;2022-09-01T04:55:44;9.65;;;5.60;;
63664;SDS011;49820;33.966;73.390;2022-09-01T04:58:19;12.63;;;5.40;;
63664;SDS011;49820;33.966;73.390;2022-09-01T05:00:50;10.98;;;5.78;;
63664;SDS011;49820;33.966;73.390;2022-09-01T05:03:20;9.90;;;5.47;;
63664;SDS011;49820;33.966;73.390;2022-09-01T05:06:16;10.80;;;5.57;;
63664;SDS011;49820;33.966;73.390;2022-09-01T05:08:53;9.90;;;5.20;;
63664;SDS011;49820;33.966;73.390;2022-09-01T05:11:45;10.10;;;5.50;;
63664;SDS011;49820;33.966;73.390;2022-09-01T05:14:28;9.40;;;5.23;;
63664;SDS011;49820;33.966;73.390;2022-09-01T05:17:01;11.95;;;5.88;;
63664;SDS011;49820;33.966;73.390;2022-09-01T05:19:41;12.00;;;6.27;;
63664;SDS011;49820;33.966;73.390;2022-09-01T05:22:15;11.80;;;5.63;;
63664;SDS011;49820;33.966;73.390;2022-09-01T05:25:03;9.10;;;5.63;;
63664;SDS011;49820;33.966;73.390;2022-09-01T05:27:43;9.32;;;5.40;;
63664;SDS011;49820;33.966;73.390;2022-09-01T05:30:19;11.32;;;6.35;;
63664;SDS011;49820;33.966;73.390;2022-09-01T05:32:50;12.40;;;6.30;;
63664;SDS011;49820;33.966;73.390;2022-09-01T05:35:22;10.60;;;6.00;;
63664;SDS011;49820;33.966;73.390;2022-09-01T05:38:02;10.18;;;5.70;;
63664;SDS011;49820;33.966;73.390;2022-09-01T05:40:32;13.40;;;5.83;;
63664;SDS011;49820;33.966;73.390;2022-09-01T05:43:10;11.68;;;5.78;;
63664;SDS011;49820;33.966;73.390;2022-09-01T05:45:42;11.45;;;5.60;;
63664;SDS011;49820;33.966;73.390;2022-09-01T05:48:32;14.45;;;5.88;;
63664;SDS011;49820;33.966;73.390;2022-09-01T05:51:09;13.65;;;5.63;;
63664;SDS011;49820;33.966;73.390;2022-09-01T05:54:03;10.25;;;5.57;;
63664;SDS011;49820;33.966;73.390;2022-09-01T05:56:36;11.57;;;5.50;;
63664;SDS011;49820;33.966;73.390;2022-09-01T05:59:14;13.03;;;6.47;;
63664;SDS011;49820;33.966;73.390;2022-09-01T06:01:59;10.52;;;5.55;;
63664;SDS011;49820;33.966;73.390;2022-09-01T06:04:29;10.40;;;5.15;;
63664;SDS011;49820;33.966;73.390;2022-09-01T06:07:03;8.17;;;5.10;;
63664;SDS011;49820;33.966;73.390;2022-09-01T06:09:44;12.32;;;5.35;;
63664;SDS011;49820;33.966;73.390;2022-09-01T06:12:19;14.73;;;6.38;;
63664;SDS011;49820;33.966;73.390;2022-09-01T06:14:54;7.15;;;5.28;;
63664;SDS011;49820;33.966;73.390;2022-09-01T06:17:26;9.00;;;5.10;;
63664;SDS011;49820;33.966;73.390;2022-09-01T06:20:04;13.20;;;5.95;;
63664;SDS011;49820;33.966;73.390;2022-09-01T06:22:40;11.20;;;5.50;;
63664;SDS011;49820;33.966;73.390;2022-09-01T06:25:12;11.80;;;5.20;;
63664;SDS011;49820;33.966;73.390;2022-09-01T06:27:46;8.57;;;5.07;;
63664;SDS011;49820;33.966;73.390;2022-09-01T06:30:17;9.67;;;5.20;;
63664;SDS011;49820;33.966;73.390;2022-09-01T06:33:01;11.80;;;5.20;;
63664;SDS011;49820;33.966;73.390;2022-09-01T06:35:44;8.57;;;5.10;;
63664;SDS011;49820;33.966;73.390;2022-09-01T06:38:18;8.48;;;4.70;;
63664;SDS011;49820;33.966;73.390;2022-09-01T06:40:48;8.80;;;4.40;;
63664;SDS011;49820;33.966;73.390;2022-09-01T06:43:22;11.00;;;4.87;;
63664;SDS011;49820;33.966;73.390;2022-09-01T06:45:53;10.07;;;5.07;;
63664;SDS011;49820;33.966;73.390;2022-09-01T06:48:23;14.43;;;6.00;;
63664;SDS011;49820;33.966;73.390;2022-09-01T06:50:59;10.38;;;4.90;;
63664;SDS011;49820;33.966;73.390;2022-09-01T06:53:51;8.25;;;4.50;;
63664;SDS011;49820;33.966;73.390;2022-09-01T06:56:30;9.75;;;4.53;;
63664;SDS011;49820;33.966;73.390;2022-09-01T06:59:22;9.15;;;4.65;;
63664;SDS011;49820;33.966;73.390;2022-09-01T07:02:03;9.00;;;4.63;;
63664;SDS011;49820;33.966;73.390;2022-09-01T07:04:59;11.73;;;4.82;;
63664;SDS011;49820;33.966;73.390;2022-09-01T07:07:31;7.13;;;4.73;;
63664;SDS011;49820;33.966;73.390;2022-09-01T07:10:51;8.38;;;5.10;;
63664;SDS011;49820;33.966;73.390;2022-09-01T07:13:46;11.63;;;5.53;;
63664;SDS011;49820;33.966;73.390;2022-09-01T07:16:37;12.88;;;5.20;;
63664;SDS011;49820;33.966;73.390;2022-09-01T07:19:20;9.95;;;4.85;;
63664;SDS011;49820;33.966;73.390;2022-09-01T07:22:11;9.80;;;4.90;;
63664;SDS011;49820;33.966;73.390;2022-09-01T07:25:02;8.43;;;4.95;;
63664;SDS011;49820;33.966;73.390;2022-09-01T07:27:57;10.73;;;4.65;;
63664;SDS011;49820;33.966;73.390;2022-09-01T07:30:28;6.53;;;4.30;;
63664;SDS011;49820;33.966;73.390;2022-09-01T07:32:59;10.60;;;4.93;;
63664;SDS011;49820;33.966;73.390;2022-09-01T07:35:53;12.05;;;5.15;;
63664;SDS011;49820;33.966;73.390;2022-09-01T07:38:45;9.02;;;4.50;;
63664;SDS011;49820;33.966;73.390;2022-09-01T07:41:53;9.45;;;5.28;;
63664;SDS011;49820;33.966;73.390;2022-09-01T07:45:01;10.30;;;5.28;;
63664;SDS011;49820;33.966;73.390;2022-09-01T07:47:58;9.85;;;4.95;;
63664;SDS011;49820;33.966;73.390;2022-09-01T07:50:39;8.40;;;5.38;;
63664;SDS011;49820;33.966;73.390;2022-09-01T07:53:34;11.80;;;5.77;;
63664;SDS011;49820;33.966;73.390;2022-09-01T07:56:10;11.15;;;5.78;;
63664;SDS011;49820;33.966;73.390;2022-09-01T07:58:46;12.63;;;6.38;;
63664;SDS011;49820;33.966;73.390;2022-09-01T08:01:23;9.60;;;6.03;;
63664;SDS011;49820;33.966;73.390;2022-09-01T08:03:56;10.77;;;5.80;;
63664;SDS011;49820;33.966;73.390;2022-09-01T08:06:28;10.32;;;5.75;;
63664;SDS011;49820;33.966;73.390;2022-09-01T08:09:06;10.10;;;5.78;;
63664;SDS011;49820;33.966;73.390;2022-09-01T08:11:53;10.40;;;5.38;;
63664;SDS011;49820;33.966;73.390;2022-09-01T08:14:40;9.95;;;5.28;;
63664;SDS011;49820;33.966;73.390;2022-09-01T08:17:10;10.23;;;5.43;;
63664;SDS011;49820;33.966;73.390;2022-09-01T08:20:04;11.63;;;5.50;;
63664;SDS011;49820;33.966;73.390;2022-09-01T08:22:50;11.80;;;6.35;;
63664;SDS011;49820;33.966;73.390;2022-09-01T08:25:24;11.20;;;6.30;;
63664;SDS011;49820;33.966;73.390;2022-09-01T08:27:55;8.43;;;5.88;;
63664;SDS011;49820;33.966;73.390;2022-09-01T08:30:28;11.38;;;6.25;;
63664;SDS011;49820;33.966;73.390;2022-09-01T08:33:02;10.20;;;6.50;;
63664;SDS011;49820;33.966;73.390;2022-09-01T08:35:45;10.43;;;6.18;;
63664;SDS011;49820;33.966;73.390;2022-09-01T08:38:19;12.27;;;6.18;;
63664;SDS011;49820;33.966;73.390;2022-09-01T08:40:55;8.27;;;5.72;;
63664;SDS011;49820;33.966;73.390;2022-09-01T08:43:43;11.45;;;6.07;;
63664;SDS011;49820;33.966;73.390;2022-09-01T08:46:32;11.77;;;5.93;;
63664;SDS011;49820;33.966;73.390;2022-09-01T08:49:20;13.35;;;6.82;;
63664;SDS011;49820;33.966;73.390;2022-09-01T08:57:43;12.17;;;6.10;;
63664;SDS011;49820;33.966;73.390;2022-09-01T09:00:19;13.57;;;5.95;;
63664;SDS011;49820;33.966;73.390;2022-09-01T09:06:16;11.23;;;6.00;;
63664;SDS011;49820;33.966;73.390;2022-09-01T09:09:05;9.52;;;5.90;;
63664;SDS011;49820;33.966;73.390;2022-09-01T09:15:03;11.45;;;6.00;;
63664;SDS011;49820;33.966;73.390;2022-09-01T09:17:50;10.68;;;5.65;;
63664;SDS011;49820;33.966;73.390;2022-09-01T09:20:27;11.10;;;5.93;;
63664;SDS011;49820;33.966;73.390;2022-09-01T09:23:01;11.35;;;5.78;;
63664;SDS011;49820;33.966;73.390;2022-09-01T09:25:52;12.05;;;5.57;;
63664;SDS011;49820;33.966;73.390;2022-09-01T09:28:23;9.88;;;5.80;;
63664;SDS011;49820;33.966;73.390;2022-09-01T09:34:00;12.68;;;5.88;;
63664;SDS011;49820;33.966;73.390;2022-09-01T09:36:31;10.07;;;5.50;;
63664;SDS011;49820;33.966;73.390;2022-09-01T09:39:11;10.70;;;5.40;;
63664;SDS011;49820;33.966;73.390;2022-09-01T09:42:00;12.02;;;5.95;;
63664;SDS011;49820;33.966;73.390;2022-09-01T09:44:44;11.77;;;6.20;;
63664;SDS011;49820;33.966;73.390;2022-09-01T09:47:39;10.10;;;5.90;;
63664;SDS011;49820;33.966;73.390;2022-09-01T09:50:25;10.30;;;6.10;;
63664;SDS011;49820;33.966;73.390;2022-09-01T09:56:05;9.67;;;5.60;;
63664;SDS011;49820;33.966;73.390;2022-09-01T09:58:52;11.35;;;6.25;;
63664;SDS011;49820;33.966;73.390;2022-09-01T10:03:57;10.32;;;5.47;;
63664;SDS011;49820;33.966;73.390;2022-09-01T10:06:36;8.40;;;5.47;;
63664;SDS011;49820;33.966;73.390;2022-09-01T10:11:55;8.90;;;4.90;;
63664;SDS011;49820;33.966;73.390;2022-09-01T10:14:49;10.02;;;5.28;;
63664;SDS011;49820;33.966;73.390;2022-09-01T10:20:04;10.80;;;5.23;;
63664;SDS011;49820;33.966;73.390;2022-09-01T10:22:37;11.83;;;5.80;;
63664;SDS011;49820;33.966;73.390;2022-09-01T10:25:13;9.18;;;5.10;;
63664;SDS011;49820;33.966;73.390;2022-09-01T10:27:47;11.13;;;5.32;;
63664;SDS011;49820;33.966;73.390;2022-09-01T10:30:24;12.70;;;5.88;;
63664;SDS011;49820;33.966;73.390;2022-09-01T10:32:57;13.10;;;5.50;;
63664;SDS011;49820;33.966;73.390;2022-09-01T10:35:46;11.20;;;5.68;;
63664;SDS011;49820;33.966;73.390;2022-09-01T10:38:20;12.27;;;6.15;;
63664;SDS011;49820;33.966;73.390;2022-09-01T10:40:56;11.82;;;5.55;;
63664;SDS011;49820;33.966;73.390;2022-09-01T10:43:45;9.68;;;5.30;;
63664;SDS011;49820;33.966;73.390;2022-09-01T10:48:53;10.23;;;5.50;;
63664;SDS011;49820;33.966;73.390;2022-09-01T10:55:05;13.63;;;5.35;;
63664;SDS011;49820;33.966;73.390;2022-09-01T11:06:01;9.35;;;4.63;;
63664;SDS011;49820;33.966;73.390;2022-09-01T11:08:56;9.47;;;4.30;;
63664;SDS011;49820;33.966;73.390;2022-09-01T11:11:35;12.80;;;4.97;;
63664;SDS011;49820;33.966;73.390;2022-09-01T11:14:27;10.82;;;5.10;;
63664;SDS011;49820;33.966;73.390;2022-09-01T11:22:42;14.03;;;5.10;;
63664;SDS011;49820;33.966;73.390;2022-09-01T11:25:31;10.27;;;5.10;;
63664;SDS011;49820;33.966;73.390;2022-09-01T11:30:54;10.48;;;5.55;;
63664;SDS011;49820;33.966;73.390;2022-09-01T11:33:42;11.05;;;5.28;;
63664;SDS011;49820;33.966;73.390;2022-09-01T11:39:05;10.48;;;5.47;;
63664;SDS011;49820;33.966;73.390;2022-09-01T11:44:50;12.30;;;6.32;;
63664;SDS011;49820;33.966;73.390;2022-09-01T11:47:49;12.82;;;6.03;;
63664;SDS011;49820;33.966;73.390;2022-09-01T11:53:01;13.00;;;5.47;;
63664;SDS011;49820;33.966;73.390;2022-09-01T11:55:40;8.40;;;5.20;;
63664;SDS011;49820;33.966;73.390;2022-09-01T12:01:12;11.50;;;6.22;;
63664;SDS011;49820;33.966;73.390;2022-09-01T12:03:51;10.68;;;6.15;;
63664;SDS011;49820;33.966;73.390;2022-09-01T12:06:22;12.80;;;6.30;;
63664;SDS011;49820;33.966;73.390;2022-09-01T12:08:59;14.05;;;7.00;;
63664;SDS011;49820;33.966;73.390;2022-09-01T12:11:34;15.82;;;6.50;;
63664;SDS011;49820;33.966;73.390;2022-09-01T12:14:06;10.95;;;6.28;;
63664;SDS011;49820;33.966;73.390;2022-09-01T12:16:39;12.50;;;7.22;;
63664;SDS011;49820;33.966;73.390;2022-09-01T12:19:23;10.60;;;6.47;;
63664;SDS011;49820;33.966;73.390;2022-09-01T12:22:00;12.63;;;6.30;;
63664;SDS011;49820;33.966;73.390;2022-09-01T12:24:33;16.17;;;8.00;;
63664;SDS011;49820;33.966;73.390;2022-09-01T12:27:04;13.53;;;7.70;;
63664;SDS011;49820;33.966;73.390;2022-09-01T12:29:34;16.50;;;7.65;;
63664;SDS011;49820;33.966;73.390;2022-09-01T12:32:05;12.57;;;6.90;;
63664;SDS011;49820;33.966;73.390;2022-09-01T12:34:56;11.98;;;7.60;;
63664;SDS011;49820;33.966;73.390;2022-09-01T12:37:37;14.05;;;8.27;;
63664;SDS011;49820;33.966;73.390;2022-09-01T12:40:16;15.48;;;8.27;;
63664;SDS011;49820;33.966;73.390;2022-09-01T12:43:00;15.02;;;8.90;;
63664;SDS011;49820;33.966;73.390;2022-09-01T12:45:37;18.27;;;9.68;;
63664;SDS011;49820;33.966;73.390;2022-09-01T12:48:28;18.17;;;9.68;;
63664;SDS011;49820;33.966;73.390;2022-09-01T12:51:02;17.38;;;9.23;;
63664;SDS011;49820;33.966;73.390;2022-09-01T12:53:53;14.52;;;8.15;;
63664;SDS011;49820;33.966;73.390;2022-09-01T12:59:07;17.47;;;10.53;;
63664;SDS011;49820;33.966;73.390;2022-09-01T13:01:44;19.33;;;10.18;;
63664;SDS011;49820;33.966;73.390;2022-09-01T13:07:05;21.67;;;10.93;;
63664;SDS011;49820;33.966;73.390;2022-09-01T13:09:35;15.43;;;9.70;;
63664;SDS011;49820;33.966;73.390;2022-09-01T13:12:09;19.23;;;10.10;;
63664;SDS011;49820;33.966;73.390;2022-09-01T13:14:49;18.35;;;11.40;;
63664;SDS011;49820;33.966;73.390;2022-09-01T13:17:19;23.45;;;12.55;;
63664;SDS011;49820;33.966;73.390;2022-09-01T13:19:50;21.17;;;12.07;;
63664;SDS011;49820;33.966;73.390;2022-09-01T13:22:21;20.40;;;10.97;;
63664;SDS011;49820;33.966;73.390;2022-09-01T13:24:52;22.50;;;12.93;;
63664;SDS011;49820;33.966;73.390;2022-09-01T13:27:23;24.08;;;14.07;;
63664;SDS011;49820;33.966;73.390;2022-09-01T13:29:54;26.88;;;15.95;;
63664;SDS011;49820;33.966;73.390;2022-09-01T13:32:24;24.48;;;13.65;;
63664;SDS011;49820;33.966;73.390;2022-09-01T13:34:53;20.42;;;12.93;;
63664;SDS011;49820;33.966;73.390;2022-09-01T13:37:23;20.80;;;13.27;;
63664;SDS011;49820;33.966;73.390;2022-09-01T13:39:53;25.13;;;13.98;;
63664;SDS011;49820;33.966;73.390;2022-09-01T13:42:23;22.45;;;14.00;;
63664;SDS011;49820;33.966;73.390;2022-09-01T13:44:55;23.90;;;13.88;;
63664;SDS011;49820;33.966;73.390;2022-09-01T13:47:25;22.38;;;14.40;;
63664;SDS011;49820;33.966;73.390;2022-09-01T13:49:57;23.45;;;14.52;;
63664;SDS011;49820;33.966;73.390;2022-09-01T13:52:39;27.38;;;15.40;;
63664;SDS011;49820;33.966;73.390;2022-09-01T13:55:23;21.98;;;14.80;;
63664;SDS011;49820;33.966;73.390;2022-09-01T13:57:55;26.25;;;15.30;;
63664;SDS011;49820;33.966;73.390;2022-09-01T14:00:31;23.65;;;14.93;;
63664;SDS011;49820;33.966;73.390;2022-09-01T14:03:05;27.50;;;16.67;;
63664;SDS011;49820;33.966;73.390;2022-09-01T14:05:39;24.92;;;15.35;;
63664;SDS011;49820;33.966;73.390;2022-09-01T14:08:14;24.35;;;17.20;;
63664;SDS011;49820;33.966;73.390;2022-09-01T14:10:46;24.63;;;15.85;;
63664;SDS011;49820;33.966;73.390;2022-09-01T14:13:19;26.70;;;16.60;;
63664;SDS011;49820;33.966;73.390;2022-09-01T14:15:50;25.38;;;16.02;;
63664;SDS011;49820;33.966;73.390;2022-09-01T14:18:21;28.88;;;16.23;;
63664;SDS011;49820;33.966;73.390;2022-09-01T14:20:52;23.85;;;15.90;;
63664;SDS011;49820;33.966;73.390;2022-09-01T14:23:26;23.92;;;15.82;;
63664;SDS011;49820;33.966;73.390;2022-09-01T14:25:56;24.05;;;17.15;;
63664;SDS011;49820;33.966;73.390;2022-09-01T14:28:26;29.23;;;17.33;;
63664;SDS011;49820;33.966;73.390;2022-09-01T14:30:55;29.45;;;18.60;;
63664;SDS011;49820;33.966;73.390;2022-09-01T14:33:23;28.63;;;17.77;;
63664;SDS011;49820;33.966;73.390;2022-09-01T14:35:55;27.73;;;19.27;;
63664;SDS011;49820;33.966;73.390;2022-09-01T14:38:26;28.35;;;18.55;;
63664;SDS011;49820;33.966;73.390;2022-09-01T14:40:57;26.02;;;17.58;;
63664;SDS011;49820;33.966;73.390;2022-09-01T14:43:26;22.75;;;17.35;;
63664;SDS011;49820;33.966;73.390;2022-09-01T14:46:03;24.10;;;17.33;;
63664;SDS011;49820;33.966;73.390;2022-09-01T14:48:35;30.23;;;16.45;;
63664;SDS011;49820;33.966;73.390;2022-09-01T14:51:07;22.35;;;16.58;;
63664;SDS011;49820;33.966;73.390;2022-09-01T14:53:38;24.73;;;16.67;;
63664;SDS011;49820;33.966;73.390;2022-09-01T14:56:07;24.33;;;16.33;;
63664;SDS011;49820;33.966;73.390;2022-09-01T14:58:37;27.65;;;17.27;;
63664;SDS011;49820;33.966;73.390;2022-09-01T15:01:08;24.23;;;16.58;;
63664;SDS011;49820;33.966;73.390;2022-09-01T15:03:58;23.45;;;16.75;;
63664;SDS011;49820;33.966;73.390;2022-09-01T15:06:28;23.58;;;16.90;;
63664;SDS011;49820;33.966;73.390;2022-09-01T15:08:58;23.98;;;16.38;;
63664;SDS011;49820;33.966;73.390;2022-09-01T15:11:28;25.60;;;16.77;;
63664;SDS011;49820;33.966;73.390;2022-09-01T15:14:02;23.38;;;17.17;;
63664;SDS011;49820;33.966;73.390;2022-09-01T15:16:32;27.77;;;17.70;;
63664;SDS011;49820;33.966;73.390;2022-09-01T15:19:07;28.75;;;16.63;;
63664;SDS011;49820;33.966;73.390;2022-09-01T15:21:39;24.92;;;16.77;;
63664;SDS011;49820;33.966;73.390;2022-09-01T15:24:12;22.42;;;16.15;;
63664;SDS011;49820;33.966;73.390;2022-09-01T15:26:42;24.40;;;16.87;;
63664;SDS011;49820;33.966;73.390;2022-09-01T15:29:14;26.83;;;16.47;;
63664;SDS011;49820;33.966;73.390;2022-09-01T15:31:44;22.00;;;16.25;;
63664;SDS011;49820;33.966;73.390;2022-09-01T15:34:14;25.48;;;15.23;;
63664;SDS011;49820;33.966;73.390;2022-09-01T15:36:45;24.55;;;16.33;;
63664;SDS011;49820;33.966;73.390;2022-09-01T15:39:15;26.15;;;16.88;;
63664;SDS011;49820;33.966;73.390;2022-09-01T15:41:45;25.95;;;16.23;;
63664;SDS011;49820;33.966;73.390;2022-09-01T15:44:15;24.15;;;17.05;;
63664;SDS011;49820;33.966;73.390;2022-09-01T15:46:45;24.65;;;16.13;;
63664;SDS011;49820;33.966;73.390;2022-09-01T15:49:14;28.03;;;16.90;;
63664;SDS011;49820;33.966;73.390;2022-09-01T15:51:45;25.60;;;16.93;;
63664;SDS011;49820;33.966;73.390;2022-09-01T15:54:16;21.02;;;16.70;;
63664;SDS011;49820;33.966;73.390;2022-09-01T15:56:51;24.83;;;16.50;;
63664;SDS011;49820;33.966;73.390;2022-09-01T15:59:21;23.63;;;16.67;;
63664;SDS011;49820;33.966;73.390;2022-09-01T16:01:52;23.00;;;16.13;;
63664;SDS011;49820;33.966;73.390;2022-09-01T16:04:22;23.05;;;16.50;;
63664;SDS011;49820;33.966;73.390;2022-09-01T16:06:54;21.08;;;15.43;;
63664;SDS011;49820;33.966;73.390;2022-09-01T16:09:24;24.35;;;15.95;;
63664;SDS011;49820;33.966;73.390;2022-09-01T16:11:54;24.15;;;16.17;;
63664;SDS011;49820;33.966;73.390;2022-09-01T16:14:24;22.45;;;15.55;;
63664;SDS011;49820;33.966;73.390;2022-09-01T16:19:52;17.23;;;14.07;;
63664;SDS011;49820;33.966;73.390;2022-09-01T16:25:07;20.75;;;14.27;;
63664;SDS011;49820;33.966;73.390;2022-09-01T16:27:45;22.63;;;13.98;;
63664;SDS011;49820;33.966;73.390;2022-09-01T16:30:19;24.98;;;13.88;;